UPSVAC Airport Information Service

Kahului Airport

ICAO: PHOG Country: United States
Latitude: 20.8986 Longitude: -156.43
Latest Arrival : UPS2457 (KONT-PHOG) Latest Departure : AMF3250 (PHOG-PHNL)


WX CaptureLIVE
Data provided by noaa.gov | Fetched at 21:54:24

METAR : PHOG 112054Z 05022G29KT 10SM FEW030 FEW050 28/17 A3001

TAF : PHOG 111742Z 1118/1218 05012KT P6SM FEW030 SCT050 FM112000 05019G26KT P6SM FEW030 SCT050 FM120500 05011KT P6SM FEW030 SCT050 FM120800 05008KT P6SM FEW030 SCT040 LTD TO VIS AND WIND 1209/1216


Runway Data for PHOG
Data provided by openaviationdata.com

Runway ID Mag Var Hdg Length Elevation Surface ILS Freq ILS Id ILS Slope
2 10 24° 7011 ft 18 ft Asphalt 110.1 IOGG 3
5 10 54° 4991 ft 18 ft Asphalt -- -- --
20 10 204° 7011 ft 18 ft Asphalt -- -- --
23 10 234° 4991 ft 18 ft Asphalt -- -- --

Kahului Airport, United States
Use only for reference purposes



Not for navigational purposes.